sensor_id;sensor_type;location;lat;lon;timestamp;P1;durP1;ratioP1;P2;durP2;ratioP2
31384;SDS011;18016;49.788;8.742;2023-03-03T00:00:12;42.90;;;20.77;;
31384;SDS011;18016;49.788;8.742;2023-03-03T00:02:37;49.67;;;21.48;;
31384;SDS011;18016;49.788;8.742;2023-03-03T00:05:02;46.03;;;21.45;;
31384;SDS011;18016;49.788;8.742;2023-03-03T00:07:27;48.92;;;21.77;;
31384;SDS011;18016;49.788;8.742;2023-03-03T00:09:53;40.63;;;20.47;;
31384;SDS011;18016;49.788;8.742;2023-03-03T00:17:13;40.30;;;19.65;;
31384;SDS011;18016;49.788;8.742;2023-03-03T00:19:39;34.55;;;18.30;;
31384;SDS011;18016;49.788;8.742;2023-03-03T00:22:06;33.92;;;19.17;;
31384;SDS011;18016;49.788;8.742;2023-03-03T00:24:38;36.50;;;19.05;;
31384;SDS011;18016;49.788;8.742;2023-03-03T00:27:09;40.67;;;18.30;;
31384;SDS011;18016;49.788;8.742;2023-03-03T00:29:43;38.75;;;18.33;;
31384;SDS011;18016;49.788;8.742;2023-03-03T00:32:17;38.30;;;18.08;;
31384;SDS011;18016;49.788;8.742;2023-03-03T00:34:43;37.97;;;20.35;;
31384;SDS011;18016;49.788;8.742;2023-03-03T00:39:46;31.95;;;16.42;;
31384;SDS011;18016;49.788;8.742;2023-03-03T00:42:12;31.07;;;16.50;;
31384;SDS011;18016;49.788;8.742;2023-03-03T00:44:39;29.75;;;17.10;;
31384;SDS011;18016;49.788;8.742;2023-03-03T00:49:50;32.40;;;15.87;;
31384;SDS011;18016;49.788;8.742;2023-03-03T00:52:16;36.03;;;16.65;;
31384;SDS011;18016;49.788;8.742;2023-03-03T00:54:42;31.58;;;15.93;;
31384;SDS011;18016;49.788;8.742;2023-03-03T00:57:07;33.88;;;16.88;;
31384;SDS011;18016;49.788;8.742;2023-03-03T00:59:32;30.50;;;15.67;;
31384;SDS011;18016;49.788;8.742;2023-03-03T01:01:57;30.20;;;15.57;;
31384;SDS011;18016;49.788;8.742;2023-03-03T01:04:23;23.83;;;14.45;;
31384;SDS011;18016;49.788;8.742;2023-03-03T01:06:48;31.27;;;15.33;;
31384;SDS011;18016;49.788;8.742;2023-03-03T01:09:13;27.08;;;15.13;;
31384;SDS011;18016;49.788;8.742;2023-03-03T01:11:38;27.52;;;14.65;;
31384;SDS011;18016;49.788;8.742;2023-03-03T01:14:04;27.67;;;14.45;;
31384;SDS011;18016;49.788;8.742;2023-03-03T01:16:29;31.65;;;15.10;;
31384;SDS011;18016;49.788;8.742;2023-03-03T01:18:54;26.60;;;14.40;;
31384;SDS011;18016;49.788;8.742;2023-03-03T01:21:19;25.90;;;14.13;;
31384;SDS011;18016;49.788;8.742;2023-03-03T01:23:45;29.53;;;14.00;;
31384;SDS011;18016;49.788;8.742;2023-03-03T01:26:10;24.85;;;13.93;;
31384;SDS011;18016;49.788;8.742;2023-03-03T01:28:35;28.80;;;15.07;;
31384;SDS011;18016;49.788;8.742;2023-03-03T01:31:01;32.27;;;14.57;;
31384;SDS011;18016;49.788;8.742;2023-03-03T01:33:26;27.60;;;13.25;;
31384;SDS011;18016;49.788;8.742;2023-03-03T01:35:51;25.10;;;13.23;;
31384;SDS011;18016;49.788;8.742;2023-03-03T01:38:16;27.23;;;13.77;;
31384;SDS011;18016;49.788;8.742;2023-03-03T01:40:42;33.87;;;13.33;;
31384;SDS011;18016;49.788;8.742;2023-03-03T01:43:13;30.63;;;14.00;;
31384;SDS011;18016;49.788;8.742;2023-03-03T01:48:35;26.52;;;13.95;;
31384;SDS011;18016;49.788;8.742;2023-03-03T01:51:00;29.65;;;13.75;;
31384;SDS011;18016;49.788;8.742;2023-03-03T01:53:33;24.65;;;13.73;;
31384;SDS011;18016;49.788;8.742;2023-03-03T01:55:59;24.90;;;13.00;;
31384;SDS011;18016;49.788;8.742;2023-03-03T01:58:26;21.95;;;12.63;;
31384;SDS011;18016;49.788;8.742;2023-03-03T02:00:54;23.52;;;12.02;;
31384;SDS011;18016;49.788;8.742;2023-03-03T02:03:21;24.30;;;12.60;;
31384;SDS011;18016;49.788;8.742;2023-03-03T02:05:47;24.27;;;12.90;;
31384;SDS011;18016;49.788;8.742;2023-03-03T02:08:14;22.02;;;12.68;;
31384;SDS011;18016;49.788;8.742;2023-03-03T02:10:40;22.63;;;12.68;;
31384;SDS011;18016;49.788;8.742;2023-03-03T02:13:05;22.83;;;11.70;;
31384;SDS011;18016;49.788;8.742;2023-03-03T02:15:32;23.77;;;13.10;;
31384;SDS011;18016;49.788;8.742;2023-03-03T02:17:58;35.58;;;13.32;;
31384;SDS011;18016;49.788;8.742;2023-03-03T02:20:27;28.10;;;12.05;;
31384;SDS011;18016;49.788;8.742;2023-03-03T02:22:56;24.17;;;12.30;;
31384;SDS011;18016;49.788;8.742;2023-03-03T02:25:27;24.25;;;12.65;;
31384;SDS011;18016;49.788;8.742;2023-03-03T02:27:52;23.85;;;11.77;;
31384;SDS011;18016;49.788;8.742;2023-03-03T02:30:19;25.27;;;11.83;;
31384;SDS011;18016;49.788;8.742;2023-03-03T02:32:44;24.25;;;12.82;;
31384;SDS011;18016;49.788;8.742;2023-03-03T02:35:24;24.00;;;11.87;;
31384;SDS011;18016;49.788;8.742;2023-03-03T02:37:49;21.65;;;11.48;;
31384;SDS011;18016;49.788;8.742;2023-03-03T02:40:15;23.60;;;12.80;;
31384;SDS011;18016;49.788;8.742;2023-03-03T02:42:42;22.75;;;11.90;;
31384;SDS011;18016;49.788;8.742;2023-03-03T02:45:08;24.05;;;11.88;;
31384;SDS011;18016;49.788;8.742;2023-03-03T02:47:33;24.90;;;12.15;;
31384;SDS011;18016;49.788;8.742;2023-03-03T02:49:59;24.85;;;12.57;;
31384;SDS011;18016;49.788;8.742;2023-03-03T02:52:24;25.25;;;13.10;;
31384;SDS011;18016;49.788;8.742;2023-03-03T02:54:49;23.83;;;12.37;;
31384;SDS011;18016;49.788;8.742;2023-03-03T02:57:14;23.80;;;12.47;;
31384;SDS011;18016;49.788;8.742;2023-03-03T02:59:39;26.58;;;12.90;;
31384;SDS011;18016;49.788;8.742;2023-03-03T03:02:05;21.40;;;12.10;;
31384;SDS011;18016;49.788;8.742;2023-03-03T03:04:31;23.25;;;12.52;;
31384;SDS011;18016;49.788;8.742;2023-03-03T03:06:56;27.45;;;12.60;;
31384;SDS011;18016;49.788;8.742;2023-03-03T03:09:22;24.63;;;12.13;;
31384;SDS011;18016;49.788;8.742;2023-03-03T03:11:47;22.35;;;12.35;;
31384;SDS011;18016;49.788;8.742;2023-03-03T03:14:13;21.45;;;12.18;;
31384;SDS011;18016;49.788;8.742;2023-03-03T03:16:38;24.95;;;12.75;;
31384;SDS011;18016;49.788;8.742;2023-03-03T03:19:03;23.20;;;12.32;;
31384;SDS011;18016;49.788;8.742;2023-03-03T03:21:29;22.25;;;11.82;;
31384;SDS011;18016;49.788;8.742;2023-03-03T03:23:54;23.55;;;11.55;;
31384;SDS011;18016;49.788;8.742;2023-03-03T03:26:20;22.77;;;11.82;;
31384;SDS011;18016;49.788;8.742;2023-03-03T03:28:45;23.58;;;12.00;;
31384;SDS011;18016;49.788;8.742;2023-03-03T03:31:10;24.17;;;11.35;;
31384;SDS011;18016;49.788;8.742;2023-03-03T03:33:36;24.15;;;11.18;;
31384;SDS011;18016;49.788;8.742;2023-03-03T03:36:01;19.90;;;10.67;;
31384;SDS011;18016;49.788;8.742;2023-03-03T03:38:27;24.35;;;11.77;;
31384;SDS011;18016;49.788;8.742;2023-03-03T03:40:53;26.05;;;12.77;;
31384;SDS011;18016;49.788;8.742;2023-03-03T03:43:19;22.73;;;12.20;;
31384;SDS011;18016;49.788;8.742;2023-03-03T03:45:44;24.60;;;12.75;;
31384;SDS011;18016;49.788;8.742;2023-03-03T03:48:09;25.50;;;11.75;;
31384;SDS011;18016;49.788;8.742;2023-03-03T03:50:35;32.25;;;11.70;;
31384;SDS011;18016;49.788;8.742;2023-03-03T03:53:00;29.52;;;13.38;;
31384;SDS011;18016;49.788;8.742;2023-03-03T03:55:26;23.80;;;12.53;;
31384;SDS011;18016;49.788;8.742;2023-03-03T03:57:51;24.13;;;12.33;;
31384;SDS011;18016;49.788;8.742;2023-03-03T04:00:16;24.25;;;12.23;;
31384;SDS011;18016;49.788;8.742;2023-03-03T04:02:41;21.60;;;12.23;;
31384;SDS011;18016;49.788;8.742;2023-03-03T04:05:07;24.05;;;12.40;;
31384;SDS011;18016;49.788;8.742;2023-03-03T04:07:32;24.95;;;13.13;;
31384;SDS011;18016;49.788;8.742;2023-03-03T04:09:58;25.73;;;12.65;;
31384;SDS011;18016;49.788;8.742;2023-03-03T04:12:23;30.30;;;12.60;;
31384;SDS011;18016;49.788;8.742;2023-03-03T04:14:48;22.40;;;11.47;;
31384;SDS011;18016;49.788;8.742;2023-03-03T04:17:20;23.98;;;11.77;;
31384;SDS011;18016;49.788;8.742;2023-03-03T04:19:45;24.77;;;12.30;;
31384;SDS011;18016;49.788;8.742;2023-03-03T04:22:11;22.92;;;11.98;;
31384;SDS011;18016;49.788;8.742;2023-03-03T04:24:37;22.42;;;12.52;;
31384;SDS011;18016;49.788;8.742;2023-03-03T04:27:02;20.80;;;12.30;;
31384;SDS011;18016;49.788;8.742;2023-03-03T04:29:28;23.63;;;13.48;;
31384;SDS011;18016;49.788;8.742;2023-03-03T04:31:53;21.00;;;11.85;;
31384;SDS011;18016;49.788;8.742;2023-03-03T04:34:19;22.58;;;12.15;;
31384;SDS011;18016;49.788;8.742;2023-03-03T04:36:44;23.77;;;12.20;;
31384;SDS011;18016;49.788;8.742;2023-03-03T04:39:09;21.80;;;11.93;;
31384;SDS011;18016;49.788;8.742;2023-03-03T04:41:34;24.50;;;11.88;;
31384;SDS011;18016;49.788;8.742;2023-03-03T04:43:59;23.83;;;12.07;;
31384;SDS011;18016;49.788;8.742;2023-03-03T04:46:25;24.17;;;12.52;;
31384;SDS011;18016;49.788;8.742;2023-03-03T04:48:50;24.48;;;12.23;;
31384;SDS011;18016;49.788;8.742;2023-03-03T04:51:16;22.55;;;12.05;;
31384;SDS011;18016;49.788;8.742;2023-03-03T04:53:42;22.25;;;11.75;;
31384;SDS011;18016;49.788;8.742;2023-03-03T04:56:07;22.27;;;12.35;;
31384;SDS011;18016;49.788;8.742;2023-03-03T04:58:33;20.75;;;11.60;;
31384;SDS011;18016;49.788;8.742;2023-03-03T05:00:58;31.27;;;12.35;;
31384;SDS011;18016;49.788;8.742;2023-03-03T05:03:23;24.23;;;12.88;;
31384;SDS011;18016;49.788;8.742;2023-03-03T05:05:49;26.92;;;12.38;;
31384;SDS011;18016;49.788;8.742;2023-03-03T05:08:14;24.42;;;12.52;;
31384;SDS011;18016;49.788;8.742;2023-03-03T05:10:39;28.23;;;14.18;;
31384;SDS011;18016;49.788;8.742;2023-03-03T05:13:05;27.88;;;15.45;;
31384;SDS011;18016;49.788;8.742;2023-03-03T05:15:31;45.83;;;25.13;;
31384;SDS011;18016;49.788;8.742;2023-03-03T05:17:56;29.75;;;15.57;;
31384;SDS011;18016;49.788;8.742;2023-03-03T05:20:22;35.33;;;21.38;;
31384;SDS011;18016;49.788;8.742;2023-03-03T05:22:47;32.00;;;18.02;;
31384;SDS011;18016;49.788;8.742;2023-03-03T05:25:12;60.28;;;35.83;;
31384;SDS011;18016;49.788;8.742;2023-03-03T05:27:38;69.78;;;41.55;;
31384;SDS011;18016;49.788;8.742;2023-03-03T05:30:03;31.48;;;18.13;;
31384;SDS011;18016;49.788;8.742;2023-03-03T05:32:29;39.33;;;20.73;;
31384;SDS011;18016;49.788;8.742;2023-03-03T05:34:54;45.87;;;23.60;;
31384;SDS011;18016;49.788;8.742;2023-03-03T05:37:19;41.72;;;23.23;;
31384;SDS011;18016;49.788;8.742;2023-03-03T05:39:44;157.32;;;94.10;;
31384;SDS011;18016;49.788;8.742;2023-03-03T05:42:10;99.97;;;58.42;;
31384;SDS011;18016;49.788;8.742;2023-03-03T05:44:36;146.07;;;91.45;;
31384;SDS011;18016;49.788;8.742;2023-03-03T05:47:01;155.32;;;94.47;;
31384;SDS011;18016;49.788;8.742;2023-03-03T05:49:26;122.88;;;77.35;;
31384;SDS011;18016;49.788;8.742;2023-03-03T05:51:52;55.83;;;32.05;;
31384;SDS011;18016;49.788;8.742;2023-03-03T05:54:17;42.78;;;22.00;;
31384;SDS011;18016;49.788;8.742;2023-03-03T05:56:42;37.15;;;17.65;;
31384;SDS011;18016;49.788;8.742;2023-03-03T05:59:07;35.97;;;17.65;;
31384;SDS011;18016;49.788;8.742;2023-03-03T06:01:33;31.27;;;16.73;;
31384;SDS011;18016;49.788;8.742;2023-03-03T06:03:58;29.25;;;15.50;;
31384;SDS011;18016;49.788;8.742;2023-03-03T06:06:23;34.17;;;16.17;;
31384;SDS011;18016;49.788;8.742;2023-03-03T06:08:49;32.80;;;16.55;;
31384;SDS011;18016;49.788;8.742;2023-03-03T06:11:14;29.38;;;15.98;;
31384;SDS011;18016;49.788;8.742;2023-03-03T06:13:40;34.33;;;16.23;;
31384;SDS011;18016;49.788;8.742;2023-03-03T06:16:06;33.30;;;16.90;;
31384;SDS011;18016;49.788;8.742;2023-03-03T06:18:32;33.17;;;16.25;;
31384;SDS011;18016;49.788;8.742;2023-03-03T06:20:57;33.00;;;17.15;;
31384;SDS011;18016;49.788;8.742;2023-03-03T06:23:22;35.40;;;17.70;;
31384;SDS011;18016;49.788;8.742;2023-03-03T06:25:47;35.05;;;17.60;;
31384;SDS011;18016;49.788;8.742;2023-03-03T06:28:13;35.60;;;19.33;;
31384;SDS011;18016;49.788;8.742;2023-03-03T06:30:39;36.28;;;18.20;;
31384;SDS011;18016;49.788;8.742;2023-03-03T06:33:04;36.05;;;16.60;;
31384;SDS011;18016;49.788;8.742;2023-03-03T06:35:29;37.65;;;17.27;;
31384;SDS011;18016;49.788;8.742;2023-03-03T06:37:54;38.70;;;16.60;;
31384;SDS011;18016;49.788;8.742;2023-03-03T06:40:20;35.55;;;17.35;;
31384;SDS011;18016;49.788;8.742;2023-03-03T06:42:45;37.67;;;17.38;;
31384;SDS011;18016;49.788;8.742;2023-03-03T06:45:10;31.80;;;16.17;;
31384;SDS011;18016;49.788;8.742;2023-03-03T06:47:35;38.17;;;19.08;;
31384;SDS011;18016;49.788;8.742;2023-03-03T06:50:01;37.72;;;17.60;;
31384;SDS011;18016;49.788;8.742;2023-03-03T06:52:26;45.42;;;19.98;;
31384;SDS011;18016;49.788;8.742;2023-03-03T06:54:55;40.25;;;21.80;;
31384;SDS011;18016;49.788;8.742;2023-03-03T06:57:25;42.30;;;21.15;;
31384;SDS011;18016;49.788;8.742;2023-03-03T06:59:52;42.70;;;21.00;;
31384;SDS011;18016;49.788;8.742;2023-03-03T07:02:17;65.13;;;30.77;;
31384;SDS011;18016;49.788;8.742;2023-03-03T07:04:43;51.60;;;26.35;;
31384;SDS011;18016;49.788;8.742;2023-03-03T07:09:43;38.40;;;21.42;;
31384;SDS011;18016;49.788;8.742;2023-03-03T07:12:13;39.92;;;22.13;;
31384;SDS011;18016;49.788;8.742;2023-03-03T07:14:43;56.03;;;25.65;;
31384;SDS011;18016;49.788;8.742;2023-03-03T07:17:10;54.67;;;27.77;;
31384;SDS011;18016;49.788;8.742;2023-03-03T07:19:38;60.30;;;30.23;;
31384;SDS011;18016;49.788;8.742;2023-03-03T07:22:18;66.00;;;31.48;;
31384;SDS011;18016;49.788;8.742;2023-03-03T07:24:44;68.53;;;32.80;;
31384;SDS011;18016;49.788;8.742;2023-03-03T07:27:11;65.13;;;32.38;;
31384;SDS011;18016;49.788;8.742;2023-03-03T07:29:37;67.60;;;32.67;;
31384;SDS011;18016;49.788;8.742;2023-03-03T07:32:12;68.25;;;33.42;;
31384;SDS011;18016;49.788;8.742;2023-03-03T07:34:43;65.38;;;32.90;;
31384;SDS011;18016;49.788;8.742;2023-03-03T07:37:17;64.28;;;33.35;;
31384;SDS011;18016;49.788;8.742;2023-03-03T07:39:46;67.43;;;34.35;;
31384;SDS011;18016;49.788;8.742;2023-03-03T07:44:56;68.15;;;34.35;;
31384;SDS011;18016;49.788;8.742;2023-03-03T07:47:26;64.60;;;33.83;;
31384;SDS011;18016;49.788;8.742;2023-03-03T07:49:55;68.53;;;34.75;;
31384;SDS011;18016;49.788;8.742;2023-03-03T07:52:30;62.83;;;33.05;;
31384;SDS011;18016;49.788;8.742;2023-03-03T07:54:56;66.28;;;35.15;;
31384;SDS011;18016;49.788;8.742;2023-03-03T07:57:35;71.82;;;35.20;;
31384;SDS011;18016;49.788;8.742;2023-03-03T08:02:47;70.22;;;35.05;;
31384;SDS011;18016;49.788;8.742;2023-03-03T08:05:21;78.70;;;36.05;;
31384;SDS011;18016;49.788;8.742;2023-03-03T08:07:50;73.85;;;35.53;;
31384;SDS011;18016;49.788;8.742;2023-03-03T08:10:34;73.63;;;37.00;;
31384;SDS011;18016;49.788;8.742;2023-03-03T08:13:00;68.82;;;34.88;;
31384;SDS011;18016;49.788;8.742;2023-03-03T08:15:30;68.88;;;34.60;;
31384;SDS011;18016;49.788;8.742;2023-03-03T08:17:56;71.40;;;36.83;;
31384;SDS011;18016;49.788;8.742;2023-03-03T08:22:50;68.18;;;36.15;;
31384;SDS011;18016;49.788;8.742;2023-03-03T08:25:15;69.43;;;36.67;;
31384;SDS011;18016;49.788;8.742;2023-03-03T08:27:40;67.83;;;34.53;;
31384;SDS011;18016;49.788;8.742;2023-03-03T08:30:06;70.85;;;34.67;;
31384;SDS011;18016;49.788;8.742;2023-03-03T08:32:31;75.70;;;35.65;;
31384;SDS011;18016;49.788;8.742;2023-03-03T08:34:56;69.83;;;36.20;;
31384;SDS011;18016;49.788;8.742;2023-03-03T08:37:21;73.38;;;36.60;;
31384;SDS011;18016;49.788;8.742;2023-03-03T08:39:46;74.57;;;36.73;;
31384;SDS011;18016;49.788;8.742;2023-03-03T08:42:11;70.67;;;35.57;;
31384;SDS011;18016;49.788;8.742;2023-03-03T08:44:37;72.67;;;36.03;;
31384;SDS011;18016;49.788;8.742;2023-03-03T08:47:02;68.18;;;35.58;;
31384;SDS011;18016;49.788;8.742;2023-03-03T08:49:27;68.20;;;35.97;;
31384;SDS011;18016;49.788;8.742;2023-03-03T08:51:52;72.23;;;37.27;;
31384;SDS011;18016;49.788;8.742;2023-03-03T08:54:19;74.90;;;37.20;;
31384;SDS011;18016;49.788;8.742;2023-03-03T08:56:44;76.63;;;38.13;;
31384;SDS011;18016;49.788;8.742;2023-03-03T08:59:09;72.73;;;36.03;;
31384;SDS011;18016;49.788;8.742;2023-03-03T09:01:36;70.90;;;36.28;;
31384;SDS011;18016;49.788;8.742;2023-03-03T09:04:01;71.90;;;37.03;;
31384;SDS011;18016;49.788;8.742;2023-03-03T09:06:26;70.60;;;36.25;;
31384;SDS011;18016;49.788;8.742;2023-03-03T09:08:51;70.80;;;36.60;;
31384;SDS011;18016;49.788;8.742;2023-03-03T09:11:19;72.20;;;37.05;;
31384;SDS011;18016;49.788;8.742;2023-03-03T09:13:45;74.70;;;38.10;;
31384;SDS011;18016;49.788;8.742;2023-03-03T09:16:17;77.30;;;37.25;;
31384;SDS011;18016;49.788;8.742;2023-03-03T09:18:42;68.82;;;37.10;;
31384;SDS011;18016;49.788;8.742;2023-03-03T09:21:15;70.93;;;36.15;;
31384;SDS011;18016;49.788;8.742;2023-03-03T09:23:42;70.60;;;38.42;;
31384;SDS011;18016;49.788;8.742;2023-03-03T09:28:45;63.33;;;34.22;;
31384;SDS011;18016;49.788;8.742;2023-03-03T09:31:16;71.47;;;37.03;;
31384;SDS011;18016;49.788;8.742;2023-03-03T09:38:39;63.20;;;34.47;;
31384;SDS011;18016;49.788;8.742;2023-03-03T09:51:59;61.83;;;34.63;;
31384;SDS011;18016;49.788;8.742;2023-03-03T09:54:46;65.95;;;35.13;;
31384;SDS011;18016;49.788;8.742;2023-03-03T09:57:15;62.42;;;33.38;;
31384;SDS011;18016;49.788;8.742;2023-03-03T09:59:57;61.22;;;34.65;;
31384;SDS011;18016;49.788;8.742;2023-03-03T10:10:20;63.33;;;34.58;;
31384;SDS011;18016;49.788;8.742;2023-03-03T10:12:53;66.65;;;35.95;;
31384;SDS011;18016;49.788;8.742;2023-03-03T10:20:38;60.67;;;34.38;;
31384;SDS011;18016;49.788;8.742;2023-03-03T10:23:17;61.42;;;34.97;;
31384;SDS011;18016;49.788;8.742;2023-03-03T10:25:52;65.72;;;36.85;;
31384;SDS011;18016;49.788;8.742;2023-03-03T10:41:46;56.97;;;32.67;;
31384;SDS011;18016;49.788;8.742;2023-03-03T10:49:20;52.25;;;30.98;;
31384;SDS011;18016;49.788;8.742;2023-03-03T10:54:49;55.30;;;30.38;;
31384;SDS011;18016;49.788;8.742;2023-03-03T10:59:57;50.33;;;28.58;;
31384;SDS011;18016;49.788;8.742;2023-03-03T11:02:29;53.45;;;29.08;;
31384;SDS011;18016;49.788;8.742;2023-03-03T11:05:15;50.95;;;30.20;;
31384;SDS011;18016;49.788;8.742;2023-03-03T11:15:15;48.97;;;28.08;;
31384;SDS011;18016;49.788;8.742;2023-03-03T11:23:05;49.25;;;28.45;;
31384;SDS011;18016;49.788;8.742;2023-03-03T11:25:44;46.75;;;27.38;;
31384;SDS011;18016;49.788;8.742;2023-03-03T11:30:45;46.43;;;26.97;;
31384;SDS011;18016;49.788;8.742;2023-03-03T11:35:39;43.70;;;25.48;;
31384;SDS011;18016;49.788;8.742;2023-03-03T11:40:44;40.75;;;24.30;;
31384;SDS011;18016;49.788;8.742;2023-03-03T11:45:41;39.72;;;23.13;;
31384;SDS011;18016;49.788;8.742;2023-03-03T11:50:42;39.60;;;23.50;;
31384;SDS011;18016;49.788;8.742;2023-03-03T11:55:45;41.22;;;23.52;;
31384;SDS011;18016;49.788;8.742;2023-03-03T11:58:24;48.40;;;26.95;;
31384;SDS011;18016;49.788;8.742;2023-03-03T12:00:53;43.85;;;24.80;;
31384;SDS011;18016;49.788;8.742;2023-03-03T12:03:29;39.45;;;23.35;;
31384;SDS011;18016;49.788;8.742;2023-03-03T12:16:20;38.55;;;22.25;;
31384;SDS011;18016;49.788;8.742;2023-03-03T12:19:02;36.97;;;22.52;;
31384;SDS011;18016;49.788;8.742;2023-03-03T12:21:42;35.00;;;22.53;;
31384;SDS011;18016;49.788;8.742;2023-03-03T12:24:18;37.13;;;22.10;;
31384;SDS011;18016;49.788;8.742;2023-03-03T12:26:53;34.80;;;21.52;;
31384;SDS011;18016;49.788;8.742;2023-03-03T12:29:45;36.75;;;22.02;;
31384;SDS011;18016;49.788;8.742;2023-03-03T12:43:06;36.40;;;22.50;;
31384;SDS011;18016;49.788;8.742;2023-03-03T12:48:41;35.85;;;21.80;;
31384;SDS011;18016;49.788;8.742;2023-03-03T12:51:30;36.42;;;22.02;;
31384;SDS011;18016;49.788;8.742;2023-03-03T12:59:23;33.40;;;21.35;;
31384;SDS011;18016;49.788;8.742;2023-03-03T13:04:23;34.13;;;21.65;;
31384;SDS011;18016;49.788;8.742;2023-03-03T13:06:58;37.97;;;22.02;;
31384;SDS011;18016;49.788;8.742;2023-03-03T13:14:56;32.80;;;21.17;;
31384;SDS011;18016;49.788;8.742;2023-03-03T13:17:26;35.55;;;20.60;;
31384;SDS011;18016;49.788;8.742;2023-03-03T13:19:58;36.05;;;22.40;;
31384;SDS011;18016;49.788;8.742;2023-03-03T13:22:29;32.78;;;20.88;;
31384;SDS011;18016;49.788;8.742;2023-03-03T13:25:01;33.03;;;21.10;;
31384;SDS011;18016;49.788;8.742;2023-03-03T13:27:35;37.05;;;22.30;;
31384;SDS011;18016;49.788;8.742;2023-03-03T13:32:51;34.47;;;21.45;;
31384;SDS011;18016;49.788;8.742;2023-03-03T13:35:23;34.05;;;21.55;;
31384;SDS011;18016;49.788;8.742;2023-03-03T13:37:52;36.95;;;22.60;;
31384;SDS011;18016;49.788;8.742;2023-03-03T13:40:21;36.50;;;22.20;;
31384;SDS011;18016;49.788;8.742;2023-03-03T13:47:55;38.55;;;21.15;;
31384;SDS011;18016;49.788;8.742;2023-03-03T13:50:30;35.08;;;20.35;;
31384;SDS011;18016;49.788;8.742;2023-03-03T13:55:28;34.33;;;20.65;;
31384;SDS011;18016;49.788;8.742;2023-03-03T13:57:57;34.05;;;21.38;;
31384;SDS011;18016;49.788;8.742;2023-03-03T14:00:29;30.77;;;19.80;;
31384;SDS011;18016;49.788;8.742;2023-03-03T14:05:24;38.60;;;20.10;;
31384;SDS011;18016;49.788;8.742;2023-03-03T14:08:02;31.48;;;18.40;;
31384;SDS011;18016;49.788;8.742;2023-03-03T14:10:32;28.98;;;18.15;;
31384;SDS011;18016;49.788;8.742;2023-03-03T14:13:03;29.33;;;18.80;;
31384;SDS011;18016;49.788;8.742;2023-03-03T14:16:14;29.13;;;18.23;;
31384;SDS011;18016;49.788;8.742;2023-03-03T14:20:47;29.13;;;17.90;;
31384;SDS011;18016;49.788;8.742;2023-03-03T14:23:16;30.30;;;18.33;;
31384;SDS011;18016;49.788;8.742;2023-03-03T14:25:53;29.15;;;17.55;;
31384;SDS011;18016;49.788;8.742;2023-03-03T14:28:21;32.75;;;18.73;;
31384;SDS011;18016;49.788;8.742;2023-03-03T14:30:47;35.30;;;18.23;;
31384;SDS011;18016;49.788;8.742;2023-03-03T14:35:47;28.67;;;18.13;;
31384;SDS011;18016;49.788;8.742;2023-03-03T14:38:15;29.02;;;17.20;;
31384;SDS011;18016;49.788;8.742;2023-03-03T14:40:41;32.53;;;17.35;;
31384;SDS011;18016;49.788;8.742;2023-03-03T14:43:25;24.65;;;16.67;;
31384;SDS011;18016;49.788;8.742;2023-03-03T14:45:56;29.00;;;17.33;;
31384;SDS011;18016;49.788;8.742;2023-03-03T14:48:48;24.65;;;15.80;;
31384;SDS011;18016;49.788;8.742;2023-03-03T14:51:21;24.92;;;16.33;;
31384;SDS011;18016;49.788;8.742;2023-03-03T14:53:47;26.85;;;16.52;;
31384;SDS011;18016;49.788;8.742;2023-03-03T14:56:25;26.88;;;15.73;;
31384;SDS011;18016;49.788;8.742;2023-03-03T14:58:51;28.05;;;15.93;;
31384;SDS011;18016;49.788;8.742;2023-03-03T15:03:47;35.42;;;15.50;;
31384;SDS011;18016;49.788;8.742;2023-03-03T15:06:25;27.58;;;16.02;;
31384;SDS011;18016;49.788;8.742;2023-03-03T15:08:52;28.77;;;16.40;;
31384;SDS011;18016;49.788;8.742;2023-03-03T15:11:19;24.50;;;15.53;;
31384;SDS011;18016;49.788;8.742;2023-03-03T15:13:45;24.90;;;15.20;;
31384;SDS011;18016;49.788;8.742;2023-03-03T15:16:11;25.38;;;15.13;;
31384;SDS011;18016;49.788;8.742;2023-03-03T15:21:25;27.15;;;15.35;;
31384;SDS011;18016;49.788;8.742;2023-03-03T15:24:03;30.13;;;15.23;;
31384;SDS011;18016;49.788;8.742;2023-03-03T15:26:43;32.22;;;15.05;;
31384;SDS011;18016;49.788;8.742;2023-03-03T15:29:13;23.60;;;15.02;;
31384;SDS011;18016;49.788;8.742;2023-03-03T15:34:24;26.45;;;15.30;;
31384;SDS011;18016;49.788;8.742;2023-03-03T15:39:44;23.75;;;13.82;;
31384;SDS011;18016;49.788;8.742;2023-03-03T15:42:20;22.58;;;14.00;;
31384;SDS011;18016;49.788;8.742;2023-03-03T15:44:54;24.15;;;13.27;;
31384;SDS011;18016;49.788;8.742;2023-03-03T15:47:33;23.42;;;13.32;;
31384;SDS011;18016;49.788;8.742;2023-03-03T15:50:46;25.63;;;12.80;;
31384;SDS011;18016;49.788;8.742;2023-03-03T15:57:47;21.33;;;12.50;;
31384;SDS011;18016;49.788;8.742;2023-03-03T16:02:54;28.05;;;15.85;;
31384;SDS011;18016;49.788;8.742;2023-03-03T16:05:25;33.45;;;18.70;;
31384;SDS011;18016;49.788;8.742;2023-03-03T16:10:28;41.60;;;22.75;;
31384;SDS011;18016;49.788;8.742;2023-03-03T16:12:59;51.70;;;27.58;;
31384;SDS011;18016;49.788;8.742;2023-03-03T16:15:31;59.97;;;31.00;;
31384;SDS011;18016;49.788;8.742;2023-03-03T16:25:59;44.90;;;24.95;;
31384;SDS011;18016;49.788;8.742;2023-03-03T16:31:15;35.42;;;20.70;;
31384;SDS011;18016;49.788;8.742;2023-03-03T16:33:49;36.83;;;19.02;;
31384;SDS011;18016;49.788;8.742;2023-03-03T16:38:47;35.35;;;19.10;;
31384;SDS011;18016;49.788;8.742;2023-03-03T16:41:22;32.58;;;18.20;;
31384;SDS011;18016;49.788;8.742;2023-03-03T16:48:50;29.42;;;15.52;;
31384;SDS011;18016;49.788;8.742;2023-03-03T16:54:04;27.23;;;13.98;;
31384;SDS011;18016;49.788;8.742;2023-03-03T16:56:47;29.77;;;14.32;;
31384;SDS011;18016;49.788;8.742;2023-03-03T16:59:33;30.55;;;15.65;;
31384;SDS011;18016;49.788;8.742;2023-03-03T17:02:11;34.72;;;15.05;;
31384;SDS011;18016;49.788;8.742;2023-03-03T17:04:51;28.83;;;15.38;;
31384;SDS011;18016;49.788;8.742;2023-03-03T17:07:41;30.25;;;17.15;;
31384;SDS011;18016;49.788;8.742;2023-03-03T17:18:17;25.48;;;13.60;;
31384;SDS011;18016;49.788;8.742;2023-03-03T17:20:47;24.75;;;12.98;;
31384;SDS011;18016;49.788;8.742;2023-03-03T17:25:46;25.65;;;12.88;;
31384;SDS011;18016;49.788;8.742;2023-03-03T17:31:12;34.38;;;14.35;;
31384;SDS011;18016;49.788;8.742;2023-03-03T17:38:58;21.58;;;12.52;;
31384;SDS011;18016;49.788;8.742;2023-03-03T17:44:19;24.10;;;12.57;;
31384;SDS011;18016;49.788;8.742;2023-03-03T17:46:49;29.20;;;13.60;;
31384;SDS011;18016;49.788;8.742;2023-03-03T18:12:17;24.48;;;12.77;;
31384;SDS011;18016;49.788;8.742;2023-03-03T18:14:59;25.00;;;12.77;;
31384;SDS011;18016;49.788;8.742;2023-03-03T18:22:41;30.00;;;14.83;;
31384;SDS011;18016;49.788;8.742;2023-03-03T18:25:13;24.80;;;12.73;;
31384;SDS011;18016;49.788;8.742;2023-03-03T18:27:40;30.73;;;13.23;;
31384;SDS011;18016;49.788;8.742;2023-03-03T18:32:40;24.85;;;13.05;;
31384;SDS011;18016;49.788;8.742;2023-03-03T18:37:47;35.35;;;13.32;;
31384;SDS011;18016;49.788;8.742;2023-03-03T18:42:57;34.83;;;13.50;;
31384;SDS011;18016;49.788;8.742;2023-03-03T18:48:01;31.10;;;15.25;;
31384;SDS011;18016;49.788;8.742;2023-03-03T18:50:31;33.53;;;14.68;;
31384;SDS011;18016;49.788;8.742;2023-03-03T18:53:14;28.73;;;14.70;;